Startpagina
METAR-TAF:

METAR-TAF

Vliegvelden :

Internationale luchthaven Kunming Changshui

Kunming, China

breedte: 25-01N, lengte: 102-41E, hoogte: 1892 m

Actueel weer

Dit bericht is 30 minuten geleden gemaakt, om 13:00 UTC
Wind 10 kt uit het zuidwesten
Temperatuur 12°C
Vochtigheid 62%
Druk 1023 hPa
Zicht 10 km of meer
geen wolken onder 1500 m en geen cumulonimbus

METAR: ZPPP 191300Z 23005MPS CAVOK 12/05 Q1023 NOSIG

Tijdstip: 21:30 (13:30 UTC)

Verwachting

Dit bericht is 6 uur en het 28 minuten geleden gemaakt, om 07:02 UTC
Verwachting geldig van 19 om 12 UTC tot 20 om 12 UTC
Wind 14 kt uit het zuidwesten
Zicht 10 km of meer
geen wolken onder 1500 m en geen cumulonimbus

TAF: ZPPP 190702Z 1912/2012 22007MPS CAVOK TX20/2008Z TN07/1923Z

Waarnemingen en weersverwachtingen van meer dan 4000 vliegvelden (METAR en TAF).

De beschikbare stations zijn de gele en rode punten op de kaart.

Ga met uw muis naar het station om de naam te zien.

Klik dan om waarnemingen en weersverwachtingen te zien.

kaart wijzigen: klik op de groene knoppen met een zwart kruis om in te zoomen, op de groene knop met een streepje om uit te zoomen of op de groene pijlen voor aangrenzende kaarten.


METAR-TAF: